Terminal Aerodrome Forecast
Issued by NWS

Home | Current Version | Previous Version | Text Only | Print | Product List | Glossary On
Versions: 1 2 3 4 5 6 7 8 9 10 11 12 13 14 15 16 17 18 19 20 21 22
000
FTUS41 KBOX 271126
TAFFMH
TAF
KFMH 271126Z 2712/2812 19006KT 2SM BR BKN003
     FM271300 19006KT P6SM BKN008
     FM271400 19008KT P6SM BKN200
     FM280000 22010KT P6SM SCT100 WS020/24040KT
     FM280600 22008KT P6SM BKN100 WS020/24045KT
     FM280800 23008KT 5SM BR BKN060 WS020/25040KT
     FM281000 23009KT 5SM BR SCT060
     FM281100 23009KT P6SM SCT060=

USA.gov is the U.S. government's official web portal to all federal, state and local government web resources and services.